aviador You're here:

OMAA Decoded Metar

ABU DHABI in UNITED ARAB EMIRATES
Report Time2017-11-24 11:00:00
UTC Time2017-11-24 11:14:34
Flight Rules vfr VFR
Wind340° at 07 kt
W.Decomp.*RWY 31: 6.1 kt HW 3.4 kt RCW
W.Rank340° ranks 6
Current wind is below 340° avg. (9.1)
Visibility9999 m
Phenomena:N/A
Clouds:N/A
Expected CloudBase > 5,200 ft AGL from Temp-Dew spread
CeilingNone
Temp28°C (ISA +13)
Dew Point15°C (45% RH)
Heat Index28.0°C
AAT27.1°C
QNH1014 hPa
Density Alt1,801 ft
Elevation89 ft
Report Wrong Elevation
Raw Report
METAR OMAA 241100Z 34007KT CAVOK 28/15 Q1014 NOSIG=

Extra information for OMAA:More info

Metar Taf Metar & Taf Last 4 Metars F.Rules Stats Wind Profile Meteogram Temp Stats Airport Information Weather charts Add Link Nearby VenuesMetar ALERT Operation Metar Decoded Social comments